createdAt,value
2017-04-20T00:00:35.407Z,0
2017-04-20T00:01:35.938Z,0
2017-04-20T00:02:36.617Z,0
2017-04-20T00:03:37.019Z,0
2017-04-20T00:04:37.520Z,0
2017-04-20T00:05:38.050Z,0
2017-04-20T00:07:39.114Z,0
2017-04-20T00:08:39.637Z,0
2017-04-20T00:09:40.196Z,0
2017-04-20T00:10:40.707Z,0
2017-04-20T00:11:41.237Z,0
2017-04-20T00:12:41.758Z,0
2017-04-20T00:13:42.289Z,0
2017-04-20T00:14:42.823Z,0
2017-04-20T00:15:43.349Z,0
2017-04-20T00:16:43.878Z,0
2017-04-20T00:17:44.417Z,0
2017-04-20T00:18:44.949Z,0
2017-04-20T00:19:45.479Z,0
2017-04-20T00:20:46.161Z,0
2017-04-20T00:21:46.546Z,0
2017-04-20T00:22:47.078Z,0
2017-04-20T00:23:47.605Z,0
2017-04-20T00:24:48.134Z,0
2017-04-20T00:25:48.697Z,0
2017-04-20T00:26:49.198Z,0
2017-04-20T00:27:49.726Z,0
2017-04-20T00:28:50.258Z,0
2017-04-20T00:29:50.787Z,0
2017-04-20T00:30:51.329Z,0
2017-04-20T00:31:51.842Z,0
2017-04-20T00:32:52.405Z,0
2017-04-20T00:33:52.901Z,0
2017-04-20T00:34:53.428Z,0
2017-04-20T00:35:53.962Z,0
2017-04-20T00:36:54.505Z,0
2017-04-20T00:37:55.021Z,0
2017-04-20T00:38:55.557Z,0
2017-04-20T00:39:56.083Z,0
2017-04-20T00:40:56.761Z,0
2017-04-20T00:41:57.144Z,0
2017-04-20T00:42:57.821Z,0
2017-04-20T00:43:58.204Z,0
2017-04-20T00:44:58.729Z,0
2017-04-20T00:45:59.261Z,0
2017-04-20T00:46:59.790Z,0
2017-04-20T00:48:00.324Z,0
2017-04-20T00:49:00.850Z,0
2017-04-20T00:50:01.381Z,0
2017-04-20T00:51:01.923Z,0
2017-04-20T00:52:02.438Z,0
2017-04-20T00:53:02.974Z,0
2017-04-20T00:54:03.502Z,0
2017-04-20T00:55:04.180Z,0
2017-04-20T00:56:04.568Z,0
2017-04-20T00:57:05.091Z,0
2017-04-20T00:58:05.625Z,0
2017-04-20T00:59:06.151Z,0
2017-04-20T01:00:06.686Z,0
2017-04-20T01:01:07.221Z,0
2017-04-20T01:02:07.755Z,0
2017-04-20T01:03:08.434Z,0
2017-04-20T01:04:08.814Z,0
2017-04-20T01:05:09.493Z,0
2017-04-20T01:06:09.880Z,0
2017-04-20T01:07:10.403Z,0
2017-04-20T01:08:10.939Z,0
2017-04-20T01:09:11.465Z,0
2017-04-20T01:10:12.016Z,0
2017-04-20T01:11:12.532Z,0
2017-04-20T01:12:13.064Z,0
2017-04-20T01:13:13.583Z,0
2017-04-20T01:14:14.121Z,0
2017-04-20T01:15:14.646Z,0
2017-04-20T01:16:15.177Z,0
2017-04-20T01:17:15.710Z,0
2017-04-20T01:18:16.237Z,0
2017-04-20T01:19:16.769Z,0
2017-04-20T01:20:17.446Z,0
2017-04-20T01:21:17.829Z,0
2017-04-20T01:22:18.358Z,0
2017-04-20T01:23:18.893Z,0
2017-04-20T01:24:19.419Z,0
2017-04-20T01:25:20.102Z,0
2017-04-20T01:26:20.481Z,0
2017-04-20T01:27:21.014Z,0
2017-04-20T01:28:21.542Z,0
2017-04-20T01:29:22.223Z,0
2017-04-20T01:30:22.611Z,0
2017-04-20T01:31:23.143Z,0
2017-04-20T01:32:23.663Z,0
2017-04-20T01:33:24.193Z,0
2017-04-20T01:34:24.727Z,0
2017-04-20T01:35:25.253Z,0
2017-04-20T01:36:25.785Z,0
2017-04-20T01:37:26.313Z,0
2017-04-20T01:38:26.841Z,0
2017-04-20T01:39:27.372Z,0
2017-04-20T01:40:27.903Z,0
2017-04-20T01:41:28.436Z,0
2017-04-20T01:42:28.971Z,0
2017-04-20T01:43:29.506Z,0
2017-04-20T01:44:30.036Z,0
2017-04-20T01:45:30.566Z,0
2017-04-20T01:46:31.096Z,0
2017-04-20T01:47:31.622Z,0
2017-04-20T01:48:32.301Z,0
2017-04-20T01:49:32.717Z,0
2017-04-20T01:50:33.214Z,0
2017-04-20T01:51:33.892Z,0
2017-04-20T01:52:34.271Z,0
2017-04-20T01:53:34.949Z,0
2017-04-20T01:54:35.328Z,0
2017-04-20T01:55:35.859Z,0
2017-04-20T01:56:36.391Z,0
2017-04-20T01:57:36.951Z,0
2017-04-20T01:58:37.448Z,0
2017-04-20T01:59:37.976Z,0
2017-04-20T02:00:38.509Z,0
2017-04-20T02:01:39.041Z,0
2017-04-20T02:02:39.569Z,0
2017-04-20T02:03:40.115Z,0
2017-04-20T02:04:40.638Z,0
2017-04-20T02:05:41.171Z,0
2017-04-20T02:06:41.693Z,0
2017-04-20T02:07:42.222Z,0
2017-04-20T02:08:42.750Z,0
2017-04-20T02:09:43.273Z,0
2017-04-20T02:10:43.809Z,0
2017-04-20T02:11:44.342Z,0
2017-04-20T02:12:44.868Z,0
2017-04-20T02:13:45.544Z,0
2017-04-20T02:14:45.928Z,0
2017-04-20T02:15:46.461Z,0
2017-04-20T02:16:46.986Z,0
2017-04-20T02:17:47.512Z,0
2017-04-20T02:18:48.044Z,0
2017-04-20T02:19:48.570Z,0
2017-04-20T02:20:49.100Z,0
2017-04-20T02:21:49.634Z,0
2017-04-20T02:22:50.169Z,0
2017-04-20T02:23:50.705Z,0
2017-04-20T02:24:51.238Z,0
2017-04-20T02:25:51.775Z,0
2017-04-20T02:26:52.307Z,0
2017-04-20T02:27:52.840Z,0
2017-04-20T02:28:53.370Z,0
2017-04-20T02:29:53.899Z,0
2017-04-20T02:30:54.429Z,0
2017-04-20T02:31:54.960Z,0
2017-04-20T02:32:55.489Z,0
2017-04-20T02:33:56.165Z,0
2017-04-20T02:34:56.547Z,0
2017-04-20T02:35:57.074Z,0
2017-04-20T02:36:57.606Z,0
2017-04-20T02:37:58.152Z,0
2017-04-20T02:38:58.662Z,0
2017-04-20T02:39:59.189Z,0
2017-04-20T02:40:59.718Z,0
2017-04-20T02:42:00.246Z,0
2017-04-20T02:43:00.780Z,0
2017-04-20T02:44:01.305Z,0
2017-04-20T02:45:01.839Z,0
2017-04-20T02:46:02.366Z,0
2017-04-20T02:47:02.897Z,0
2017-04-20T02:48:03.576Z,0
2017-04-20T02:49:03.958Z,0
2017-04-20T02:50:04.486Z,0
2017-04-20T02:51:05.020Z,0
2017-04-20T02:52:05.543Z,0
2017-04-20T02:53:06.223Z,0
2017-04-20T02:54:06.615Z,0
2017-04-20T02:55:07.139Z,0
2017-04-20T02:56:07.665Z,0
2017-04-20T02:57:08.195Z,0
2017-04-20T02:58:08.720Z,0
2017-04-20T02:59:09.257Z,0
2017-04-20T03:00:09.778Z,0
2017-04-20T03:01:10.456Z,0
2017-04-20T03:02:10.835Z,0
2017-04-20T03:03:11.364Z,0
2017-04-20T03:04:11.924Z,0
2017-04-20T03:05:12.426Z,0
2017-04-20T03:06:12.957Z,0
2017-04-20T03:07:13.500Z,0
2017-04-20T03:08:14.034Z,0
2017-04-20T03:09:14.561Z,0
2017-04-20T03:10:15.101Z,0
2017-04-20T03:11:15.625Z,0
2017-04-20T03:12:16.154Z,0
2017-04-20T03:13:16.684Z,0
2017-04-20T03:14:17.211Z,0
2017-04-20T03:15:17.738Z,0
2017-04-20T03:16:18.306Z,0
2017-04-20T03:17:18.800Z,0
2017-04-20T03:18:19.331Z,0
2017-04-20T03:19:19.864Z,0
2017-04-20T03:20:20.543Z,0
2017-04-20T03:21:20.928Z,0
2017-04-20T03:22:21.463Z,0
2017-04-20T03:23:21.996Z,0
2017-04-20T03:24:22.530Z,0
2017-04-20T03:25:23.046Z,0
2017-04-20T03:26:23.581Z,0
2017-04-20T03:27:24.105Z,0
2017-04-20T03:28:24.783Z,0
2017-04-20T03:29:25.164Z,0
2017-04-20T03:30:25.695Z,0
2017-04-20T03:31:26.226Z,0
2017-04-20T03:32:26.755Z,0
2017-04-20T03:33:27.284Z,0
2017-04-20T03:34:27.820Z,0
2017-04-20T03:35:28.342Z,0
2017-04-20T03:36:28.872Z,0
2017-04-20T03:37:29.407Z,0
2017-04-20T03:38:29.966Z,0
2017-04-20T03:39:30.487Z,0
2017-04-20T03:40:30.993Z,0
2017-04-20T03:41:31.526Z,0
2017-04-20T03:42:32.057Z,0
2017-04-20T03:43:32.579Z,0
2017-04-20T03:44:33.112Z,0
2017-04-20T03:45:33.663Z,0
2017-04-20T03:46:34.316Z,0
2017-04-20T03:47:34.698Z,0
2017-04-20T03:48:35.386Z,0
2017-04-20T03:49:35.767Z,0
2017-04-20T03:50:36.302Z,0
2017-04-20T03:51:36.832Z,0
2017-04-20T03:52:37.361Z,0
2017-04-20T03:53:37.893Z,0
2017-04-20T03:54:38.419Z,0
2017-04-20T03:55:38.948Z,0
2017-04-20T03:56:39.489Z,0
2017-04-20T03:57:40.017Z,0
2017-04-20T03:58:40.684Z,0
2017-04-20T03:59:41.066Z,0
2017-04-20T04:00:41.590Z,0
2017-04-20T04:01:42.126Z,0
2017-04-20T04:02:42.654Z,0
2017-04-20T04:03:43.219Z,0
2017-04-20T04:04:43.715Z,0
2017-04-20T04:05:44.250Z,0
2017-04-20T04:06:45.829Z,0
2017-04-20T04:07:45.313Z,0
2017-04-20T04:08:45.838Z,0
2017-04-20T04:09:46.370Z,0
2017-04-20T04:10:46.896Z,0
2017-04-20T04:11:47.431Z,0
2017-04-20T04:12:47.958Z,0
2017-04-20T04:13:48.504Z,0
2017-04-20T04:14:49.029Z,0
2017-04-20T04:15:49.544Z,0
2017-04-20T04:16:50.072Z,0
2017-04-20T04:17:50.602Z,0
2017-04-20T04:18:51.132Z,0
2017-04-20T04:19:51.660Z,0
2017-04-20T04:20:52.192Z,0
2017-04-20T04:21:52.728Z,0
2017-04-20T04:22:53.257Z,0
2017-04-20T04:23:53.782Z,0
2017-04-20T04:24:54.313Z,0
2017-04-20T04:25:54.990Z,0
2017-04-20T04:26:55.378Z,0
2017-04-20T04:27:55.909Z,0
2017-04-20T04:28:56.434Z,0
2017-04-20T04:29:57.116Z,0
2017-04-20T04:30:57.531Z,0
2017-04-20T04:31:58.044Z,0
2017-04-20T04:32:58.724Z,0
2017-04-20T04:33:59.108Z,0
2017-04-20T04:34:59.787Z,0
2017-04-20T04:36:00.170Z,0
2017-04-20T04:37:00.701Z,0
2017-04-20T04:38:01.240Z,0
2017-04-20T04:39:01.763Z,0
2017-04-20T04:40:02.294Z,0
2017-04-20T04:41:02.819Z,0
2017-04-20T04:42:03.350Z,0
2017-04-20T04:43:03.882Z,0
2017-04-20T04:44:04.410Z,0
2017-04-20T04:45:04.938Z,20
2017-04-20T04:46:05.464Z,14
2017-04-20T04:47:06.020Z,16
2017-04-20T04:48:06.580Z,17
2017-04-20T04:49:07.209Z,17
2017-04-20T04:50:07.587Z,20
2017-04-20T04:51:08.116Z,20
2017-04-20T04:52:08.648Z,21
2017-04-20T04:53:09.175Z,22
2017-04-20T04:54:09.707Z,24
2017-04-20T04:55:10.236Z,25
2017-04-20T04:56:10.770Z,27
2017-04-20T04:57:11.294Z,27
2017-04-20T04:58:11.829Z,28
2017-04-20T04:59:12.355Z,29
2017-04-20T05:00:12.893Z,30
2017-04-20T05:01:13.415Z,30
2017-04-20T05:02:13.944Z,31
2017-04-20T05:03:14.472Z,31
2017-04-20T05:04:15.013Z,31
2017-04-20T05:05:15.535Z,32
2017-04-20T05:06:16.065Z,32
2017-04-20T05:07:16.608Z,33
2017-04-20T05:08:17.125Z,33
2017-04-20T05:09:17.657Z,34
2017-04-20T05:10:18.194Z,35
2017-04-20T05:11:18.718Z,35
2017-04-20T05:12:19.263Z,35
2017-04-20T05:13:19.791Z,36
2017-04-20T05:14:20.324Z,35
2017-04-20T05:15:20.861Z,35
2017-04-20T05:16:21.395Z,35
2017-04-20T05:17:21.923Z,35
2017-04-20T05:18:22.454Z,36
2017-04-20T05:19:23.020Z,35
2017-04-20T05:20:23.515Z,36
2017-04-20T05:21:24.051Z,36
2017-04-20T05:22:24.576Z,36
2017-04-20T05:23:25.106Z,36
2017-04-20T05:24:25.633Z,36
2017-04-20T05:25:26.168Z,36
2017-04-20T05:26:26.699Z,36
2017-04-20T05:27:27.227Z,37
2017-04-20T05:28:27.763Z,37
2017-04-20T05:29:28.285Z,36
2017-04-20T05:30:28.822Z,37
2017-04-20T05:31:29.356Z,38
2017-04-20T05:32:29.879Z,38
2017-04-20T05:33:30.556Z,39
2017-04-20T05:34:30.941Z,39
2017-04-20T05:35:31.468Z,40
2017-04-20T05:36:32.000Z,40
2017-04-20T05:37:32.556Z,41
2017-04-20T05:38:33.063Z,42
2017-04-20T05:39:33.592Z,42
2017-04-20T05:40:34.125Z,42
2017-04-20T05:41:34.801Z,42
2017-04-20T05:42:35.185Z,43
2017-04-20T05:43:35.715Z,44
2017-04-20T05:44:36.247Z,43
2017-04-20T05:45:36.778Z,45
2017-04-20T05:46:37.307Z,45
2017-04-20T05:47:37.837Z,46
2017-04-20T05:48:38.373Z,46
2017-04-20T05:49:38.903Z,47
2017-04-20T05:50:39.437Z,47
2017-04-20T05:51:40.116Z,48
2017-04-20T05:52:40.495Z,47
2017-04-20T05:53:41.036Z,48
2017-04-20T05:54:41.565Z,49
2017-04-20T05:55:42.097Z,49
2017-04-20T05:56:42.633Z,49
2017-04-20T05:57:43.161Z,49
2017-04-20T05:58:43.691Z,51
2017-04-20T05:59:44.222Z,51
2017-04-20T06:00:44.755Z,52
2017-04-20T06:01:45.279Z,52
2017-04-20T06:02:45.806Z,52
2017-04-20T06:03:46.483Z,52
2017-04-20T06:04:46.863Z,53
2017-04-20T06:05:47.385Z,53
2017-04-20T06:06:47.922Z,49
2017-04-20T06:07:48.448Z,48
2017-04-20T06:08:48.979Z,49
2017-04-20T06:09:49.509Z,55
2017-04-20T06:10:50.038Z,56
2017-04-20T06:11:50.570Z,56
2017-04-20T06:12:51.102Z,57
2017-04-20T06:13:51.634Z,58
2017-04-20T06:14:52.157Z,59
2017-04-20T06:15:52.683Z,59
2017-04-20T06:16:53.221Z,60
2017-04-20T06:17:53.747Z,61
2017-04-20T06:18:54.278Z,61
2017-04-20T06:19:54.809Z,61
2017-04-20T06:20:55.483Z,59
2017-04-20T06:21:55.869Z,63
2017-04-20T06:22:56.398Z,63
2017-04-20T06:23:56.926Z,64
2017-04-20T06:24:57.469Z,125
2017-04-20T06:25:57.985Z,132
2017-04-20T06:26:58.517Z,135
2017-04-20T06:27:59.042Z,137
2017-04-20T06:28:59.577Z,139
2017-04-20T06:30:00.109Z,141
2017-04-20T06:31:00.639Z,166
2017-04-20T06:32:01.171Z,168
2017-04-20T06:33:01.839Z,168
2017-04-20T06:34:02.379Z,167
2017-04-20T06:35:02.762Z,167
2017-04-20T06:36:03.301Z,167
2017-04-20T06:37:03.842Z,181
2017-04-20T06:38:04.365Z,183
2017-04-20T06:39:04.899Z,215
2017-04-20T06:40:05.578Z,244
2017-04-20T06:41:05.959Z,251
2017-04-20T06:42:06.493Z,254
2017-04-20T06:43:07.029Z,257
2017-04-20T06:44:07.570Z,259
2017-04-20T06:45:08.092Z,262
2017-04-20T06:46:08.632Z,261
2017-04-20T06:47:09.147Z,264
2017-04-20T06:48:09.678Z,286
2017-04-20T06:49:10.205Z,303
2017-04-20T06:50:10.736Z,307
2017-04-20T06:51:11.262Z,310
2017-04-20T06:52:11.800Z,315
2017-04-20T06:53:12.325Z,317
2017-04-20T06:54:12.857Z,320
2017-04-20T06:55:13.385Z,324
2017-04-20T06:56:13.919Z,340
2017-04-20T06:57:14.450Z,360
2017-04-20T06:58:14.979Z,401
2017-04-20T06:59:15.506Z,408
2017-04-20T07:00:16.036Z,407
2017-04-20T07:01:16.569Z,410
2017-04-20T07:02:17.096Z,416
2017-04-20T07:03:17.625Z,425
2017-04-20T07:04:18.162Z,457
2017-04-20T07:05:18.692Z,467
2017-04-20T07:06:19.215Z,470
2017-04-20T07:07:19.749Z,474
2017-04-20T07:08:20.275Z,477
2017-04-20T07:09:20.809Z,481
2017-04-20T07:10:21.343Z,480
2017-04-20T07:11:21.871Z,527
2017-04-20T07:12:22.400Z,534
2017-04-20T07:13:23.075Z,534
2017-04-20T07:14:23.458Z,540
2017-04-20T07:15:23.992Z,544
2017-04-20T07:16:24.519Z,548
2017-04-20T07:17:25.060Z,553
2017-04-20T07:18:25.592Z,555
2017-04-20T07:19:26.129Z,565
2017-04-20T07:20:26.689Z,562
2017-04-20T07:21:27.187Z,567
2017-04-20T07:22:27.715Z,572
2017-04-20T07:23:28.264Z,582
2017-04-20T07:24:28.769Z,585
2017-04-20T07:25:29.304Z,633
2017-04-20T07:26:29.833Z,638
2017-04-20T07:27:30.363Z,630
2017-04-20T07:28:30.896Z,638
2017-04-20T07:29:31.429Z,646
2017-04-20T07:30:32.112Z,652
2017-04-20T07:31:32.488Z,651
2017-04-20T07:32:33.017Z,653
2017-04-20T07:33:33.550Z,655
2017-04-20T07:34:34.078Z,660
2017-04-20T07:35:34.609Z,668
2017-04-20T07:36:35.139Z,673
2017-04-20T07:37:35.817Z,680
2017-04-20T07:38:36.200Z,690
2017-04-20T07:39:36.735Z,690
2017-04-20T07:40:37.262Z,697
2017-04-20T07:41:37.794Z,696
2017-04-20T07:42:38.472Z,696
2017-04-20T07:43:38.851Z,697
2017-04-20T07:44:39.379Z,683
2017-04-20T07:45:39.917Z,701
2017-04-20T07:46:40.442Z,691
2017-04-20T07:47:40.978Z,708
2017-04-20T07:48:41.513Z,710
2017-04-20T07:49:42.039Z,720
2017-04-20T07:50:42.570Z,724
2017-04-20T07:51:43.098Z,737
2017-04-20T07:52:43.631Z,733
2017-04-20T07:53:44.161Z,712
2017-04-20T07:54:44.698Z,722
2017-04-20T07:55:45.219Z,754
2017-04-20T07:56:45.899Z,727
2017-04-20T07:57:46.283Z,696
2017-04-20T07:58:46.812Z,741
2017-04-20T07:59:47.353Z,757
2017-04-20T08:00:47.883Z,764
2017-04-20T08:01:48.422Z,770
2017-04-20T08:02:49.097Z,777
2017-04-20T08:03:49.481Z,789
2017-04-20T08:04:50.005Z,743
2017-04-20T08:05:50.541Z,781
2017-04-20T08:06:51.069Z,784
2017-04-20T08:07:51.596Z,758
2017-04-20T08:08:52.123Z,791
2017-04-20T08:09:52.650Z,783
2017-04-20T08:10:53.181Z,764
2017-04-20T08:11:53.710Z,808
2017-04-20T08:12:54.233Z,788
2017-04-20T08:13:54.767Z,799
2017-04-20T08:14:55.299Z,815
2017-04-20T08:15:55.832Z,822
2017-04-20T08:16:56.390Z,807
2017-04-20T08:17:56.893Z,769
2017-04-20T08:18:57.421Z,815
2017-04-20T08:19:58.096Z,797
2017-04-20T08:20:58.478Z,819
2017-04-20T08:21:59.034Z,834
2017-04-20T08:22:59.541Z,821
2017-04-20T08:24:00.072Z,792
2017-04-20T08:25:00.597Z,839
2017-04-20T08:26:01.129Z,833
2017-04-20T08:27:01.811Z,874
2017-04-20T08:28:02.334Z,864
2017-04-20T08:29:02.712Z,863
2017-04-20T08:30:03.246Z,870
2017-04-20T08:31:03.772Z,864
2017-04-20T08:32:04.304Z,811
2017-04-20T08:33:04.845Z,843
2017-04-20T08:34:05.509Z,866
2017-04-20T08:35:05.893Z,869
2017-04-20T08:36:06.426Z,881
2017-04-20T08:37:07.103Z,856
2017-04-20T08:38:07.481Z,863
2017-04-20T08:39:08.035Z,880
2017-04-20T08:40:08.549Z,887
2017-04-20T08:41:09.082Z,915
2017-04-20T08:42:09.619Z,912
2017-04-20T08:43:10.153Z,914
2017-04-20T08:44:10.681Z,919
2017-04-20T08:45:11.218Z,930
2017-04-20T08:46:11.749Z,933
2017-04-20T08:47:12.275Z,908
2017-04-20T08:48:12.808Z,875
2017-04-20T08:49:13.335Z,919
2017-04-20T08:50:13.872Z,891
2017-04-20T08:51:14.397Z,913
2017-04-20T08:52:15.076Z,920
2017-04-20T08:53:15.456Z,900
2017-04-20T08:54:15.991Z,936
2017-04-20T08:55:16.515Z,961
2017-04-20T08:56:17.045Z,958
2017-04-20T08:57:17.584Z,960
2017-04-20T08:58:18.106Z,945
2017-04-20T08:59:18.632Z,916
2017-04-20T09:00:19.163Z,927
2017-04-20T09:01:19.713Z,958
2017-04-20T09:02:20.240Z,958
2017-04-20T09:03:20.791Z,936
2017-04-20T09:04:21.286Z,937
2017-04-20T09:05:21.812Z,946
2017-04-20T09:06:22.349Z,951
2017-04-20T09:07:23.027Z,954
2017-04-20T09:08:23.407Z,980
2017-04-20T09:09:23.935Z,984
2017-04-20T09:10:24.468Z,979
2017-04-20T09:11:24.995Z,980
2017-04-20T09:12:25.669Z,963
2017-04-20T09:13:26.049Z,964
2017-04-20T09:14:26.728Z,971
2017-04-20T09:15:27.112Z,954
2017-04-20T09:16:27.644Z,972
2017-04-20T09:17:28.167Z,969
2017-04-20T09:18:28.712Z,981
2017-04-20T09:19:29.229Z,987
2017-04-20T09:20:29.766Z,978
2017-04-20T09:21:30.311Z,1000
2017-04-20T09:22:30.835Z,996
2017-04-20T09:23:31.517Z,992
2017-04-20T09:24:31.901Z,978
2017-04-20T09:25:32.586Z,989
2017-04-20T09:26:32.962Z,1002
2017-04-20T09:27:33.493Z,1003
2017-04-20T09:28:34.023Z,986
2017-04-20T09:29:34.554Z,1014
2017-04-20T09:30:35.085Z,1011
2017-04-20T09:31:35.610Z,989
2017-04-20T09:32:36.289Z,1019
2017-04-20T09:33:36.676Z,1023
2017-04-20T09:34:37.205Z,999
2017-04-20T09:35:37.735Z,990
2017-04-20T09:36:38.270Z,964
2017-04-20T09:38:39.334Z,1006
2017-04-20T09:39:39.865Z,1005
2017-04-20T09:40:40.393Z,970
2017-04-20T09:41:40.934Z,1013
2017-04-20T09:42:41.458Z,972
2017-04-20T09:43:41.983Z,981
2017-04-20T09:44:42.517Z,988
2017-04-20T09:45:43.193Z,995
2017-04-20T09:46:43.573Z,966
2017-04-20T09:47:44.131Z,950
2017-04-20T09:48:44.633Z,954
2017-04-20T09:49:45.167Z,963
2017-04-20T09:50:45.692Z,968
2017-04-20T09:51:46.236Z,965
2017-04-20T09:52:46.756Z,993
2017-04-20T09:53:47.288Z,985
2017-04-20T09:54:47.814Z,962
2017-04-20T09:55:48.490Z,957
2017-04-20T09:56:49.018Z,992
2017-04-20T09:57:49.405Z,994
2017-04-20T09:58:49.933Z,932
2017-04-20T09:59:50.465Z,995
2017-04-20T10:00:50.998Z,984
2017-04-20T10:01:51.523Z,864
2017-04-20T10:02:52.072Z,916
2017-04-20T10:03:52.587Z,892
2017-04-20T10:04:53.125Z,960
2017-04-20T10:05:53.654Z,970
2017-04-20T10:06:54.188Z,778
2017-04-20T10:07:54.872Z,939
2017-04-20T10:08:55.249Z,995
2017-04-20T10:09:55.777Z,1003
2017-04-20T10:10:56.310Z,987
2017-04-20T10:11:56.849Z,982
2017-04-20T10:12:57.366Z,1027
2017-04-20T10:13:57.901Z,907
2017-04-20T10:14:58.432Z,931
2017-04-20T10:15:58.967Z,991
2017-04-20T10:16:59.499Z,937
2017-04-20T10:18:00.019Z,969
2017-04-20T10:19:00.553Z,993
2017-04-20T10:20:01.079Z,994
2017-04-20T10:21:01.609Z,1043
2017-04-20T10:22:02.142Z,1037
2017-04-20T10:23:02.680Z,1031
2017-04-20T10:24:03.213Z,950
2017-04-20T10:25:03.731Z,1027
2017-04-20T10:26:04.270Z,1066
2017-04-20T10:27:04.794Z,1062
2017-04-20T10:28:05.322Z,1035
2017-04-20T10:29:05.853Z,1011
2017-04-20T10:30:06.391Z,1018
2017-04-20T10:31:06.913Z,1044
2017-04-20T10:32:07.598Z,1056
2017-04-20T10:33:07.976Z,1042
2017-04-20T10:34:08.513Z,1056
2017-04-20T10:35:09.038Z,1044
2017-04-20T10:36:09.563Z,1044
2017-04-20T10:37:10.091Z,1012
2017-04-20T10:38:10.619Z,1042
2017-04-20T10:39:11.153Z,1047
2017-04-20T10:40:11.684Z,1037
2017-04-20T10:41:12.361Z,1062
2017-04-20T10:42:12.753Z,1052
2017-04-20T10:43:13.277Z,1069
2017-04-20T10:44:13.957Z,1070
2017-04-20T10:45:14.338Z,1077
2017-04-20T10:46:15.024Z,1069
2017-04-20T10:47:15.409Z,1029
2017-04-20T10:48:16.090Z,1065
2017-04-20T10:49:16.474Z,1051
2017-04-20T10:50:17.000Z,970
2017-04-20T10:51:17.541Z,1034
2017-04-20T10:52:18.057Z,1063
2017-04-20T10:53:18.588Z,1016
2017-04-20T10:54:19.114Z,1069
2017-04-20T10:55:19.650Z,1073
2017-04-20T10:56:20.177Z,1047
2017-04-20T10:57:20.706Z,1037
2017-04-20T10:58:21.250Z,946
2017-04-20T10:59:21.763Z,1085
2017-04-20T11:00:22.298Z,1056
2017-04-20T11:01:22.824Z,925
2017-04-20T11:02:23.355Z,992
2017-04-20T11:03:23.888Z,816
2017-04-20T11:04:24.439Z,980
2017-04-20T11:05:24.950Z,999
2017-04-20T11:06:25.479Z,1048
2017-04-20T11:07:26.007Z,1038
2017-04-20T11:08:26.552Z,991
2017-04-20T11:09:27.067Z,1069
2017-04-20T11:10:27.744Z,1048
2017-04-20T11:11:28.139Z,1055
2017-04-20T11:12:28.653Z,1027
2017-04-20T11:13:29.187Z,1043
2017-04-20T11:15:30.257Z,1063
2017-04-20T11:16:30.777Z,1054
2017-04-20T11:17:31.306Z,1050
2017-04-20T11:18:31.832Z,1066
2017-04-20T11:19:32.361Z,1062
2017-04-20T11:20:32.894Z,1074
2017-04-20T11:21:33.427Z,1080
2017-04-20T11:22:33.951Z,1061
2017-04-20T11:23:34.487Z,1046
2017-04-20T11:24:35.019Z,1078
2017-04-20T11:25:35.545Z,1072
2017-04-20T11:26:36.079Z,1079
2017-04-20T11:27:36.759Z,1094
2017-04-20T11:28:37.150Z,1089
2017-04-20T11:29:37.684Z,1062
2017-04-20T11:30:38.216Z,1076
2017-04-20T11:31:38.747Z,1049
2017-04-20T11:32:39.272Z,1034
2017-04-20T11:33:39.806Z,1043
2017-04-20T11:34:40.480Z,1050
2017-04-20T11:35:40.862Z,1013
2017-04-20T11:36:41.389Z,1009
2017-04-20T11:37:41.923Z,1034
2017-04-20T11:38:42.445Z,994
2017-04-20T11:39:42.975Z,997
2017-04-20T11:40:43.655Z,1008
2017-04-20T11:41:44.035Z,1001
2017-04-20T11:42:44.571Z,1045
2017-04-20T11:43:45.095Z,1047
2017-04-20T11:44:45.625Z,1021
2017-04-20T11:45:46.163Z,990
2017-04-20T11:46:46.688Z,974
2017-04-20T11:47:47.227Z,992
2017-04-20T11:48:47.747Z,1048
2017-04-20T11:49:48.284Z,1046
2017-04-20T11:50:48.810Z,1064
2017-04-20T11:51:49.345Z,1055
2017-04-20T11:52:49.872Z,1045
2017-04-20T11:53:50.405Z,979
2017-04-20T11:54:50.929Z,1000
2017-04-20T11:55:51.609Z,985
2017-04-20T11:56:51.996Z,991
2017-04-20T11:58:53.046Z,978
2017-04-20T11:59:53.578Z,1032
2017-04-20T12:01:54.634Z,1000
2017-04-20T12:02:55.169Z,1013
2017-04-20T12:03:55.845Z,1051
2017-04-20T12:04:56.228Z,1044
2017-04-20T12:05:56.758Z,1005
2017-04-20T12:06:57.288Z,963
2017-04-20T12:07:57.814Z,986
2017-04-20T12:08:58.345Z,963
2017-04-20T12:09:58.881Z,992
2017-04-20T12:10:59.420Z,955
2017-04-20T12:11:59.955Z,960
2017-04-20T12:13:00.639Z,976
2017-04-20T12:14:01.017Z,976
2017-04-20T12:15:01.542Z,962
2017-04-20T12:16:02.093Z,958
2017-04-20T12:17:02.605Z,972
2017-04-20T12:18:03.140Z,967
2017-04-20T12:19:03.665Z,942
2017-04-20T12:20:04.194Z,934
2017-04-20T12:21:04.727Z,981
2017-04-20T12:22:05.398Z,998
2017-04-20T12:24:06.325Z,1018
2017-04-20T12:25:06.987Z,1012
2017-04-20T12:26:07.369Z,992
2017-04-20T12:27:07.898Z,1009
2017-04-20T12:28:08.450Z,967
2017-04-20T12:29:08.980Z,965
2017-04-20T12:30:09.491Z,952
2017-04-20T12:31:10.162Z,930
2017-04-20T12:32:10.548Z,911
2017-04-20T12:33:11.107Z,867
2017-04-20T12:34:11.607Z,959
2017-04-20T12:35:12.130Z,924
2017-04-20T12:36:12.664Z,938
2017-04-20T12:37:13.344Z,907
2017-04-20T12:38:13.721Z,917
2017-04-20T12:39:14.404Z,900
2017-04-20T12:40:14.782Z,939
2017-04-20T12:41:15.345Z,917
2017-04-20T12:42:15.841Z,971
2017-04-20T12:43:16.363Z,921
2017-04-20T12:44:16.905Z,966
2017-04-20T12:45:17.436Z,990
2017-04-20T12:46:17.955Z,987
2017-04-20T12:47:18.484Z,987
2017-04-20T12:48:19.016Z,978
2017-04-20T12:49:19.543Z,936
2017-04-20T12:50:20.075Z,988
2017-04-20T12:51:20.606Z,925
2017-04-20T12:52:21.141Z,962
2017-04-20T12:53:21.676Z,915
2017-04-20T12:54:22.208Z,978
2017-04-20T12:55:22.774Z,924
2017-04-20T12:56:23.278Z,953
2017-04-20T12:57:23.796Z,951
2017-04-20T12:58:24.366Z,950
2017-04-20T12:59:24.864Z,950
2017-04-20T13:00:25.389Z,935
2017-04-20T13:01:25.917Z,972
2017-04-20T13:02:26.449Z,959
2017-04-20T13:03:26.979Z,966
2017-04-20T13:04:27.510Z,957
2017-04-20T13:05:28.036Z,952
2017-04-20T13:06:28.568Z,912
2017-04-20T13:07:29.106Z,965
2017-04-20T13:08:29.630Z,986
2017-04-20T13:09:30.157Z,993
2017-04-20T13:10:30.688Z,1007
2017-04-20T13:11:31.215Z,1000
2017-04-20T13:12:31.754Z,982
2017-04-20T13:13:32.275Z,965
2017-04-20T13:14:32.808Z,969
2017-04-20T13:15:33.484Z,938
2017-04-20T13:16:33.865Z,927
2017-04-20T13:17:34.397Z,924
2017-04-20T13:18:34.919Z,912
2017-04-20T13:19:35.603Z,902
2017-04-20T13:20:35.982Z,905
2017-04-20T13:21:36.519Z,879
2017-04-20T13:22:37.042Z,838
2017-04-20T13:23:37.567Z,839
2017-04-20T13:24:38.110Z,753
2017-04-20T13:25:38.627Z,916
2017-04-20T13:26:39.159Z,945
2017-04-20T13:27:39.685Z,948
2017-04-20T13:28:40.215Z,935
2017-04-20T13:29:40.745Z,931
2017-04-20T13:30:41.272Z,881
2017-04-20T13:31:41.804Z,906
2017-04-20T13:32:42.340Z,879
2017-04-20T13:33:43.016Z,861
2017-04-20T13:34:43.406Z,865
2017-04-20T13:35:43.933Z,865
2017-04-20T13:36:44.465Z,847
2017-04-20T13:37:45.000Z,877
2017-04-20T13:38:45.527Z,895
2017-04-20T13:39:46.058Z,875
2017-04-20T13:40:46.753Z,890
2017-04-20T13:41:47.117Z,883
2017-04-20T13:42:47.648Z,886
2017-04-20T13:43:48.187Z,893
2017-04-20T13:44:48.709Z,881
2017-04-20T13:45:49.240Z,899
2017-04-20T13:46:49.764Z,889
2017-04-20T13:47:50.301Z,889
2017-04-20T13:48:50.972Z,893
2017-04-20T13:49:51.355Z,870
2017-04-20T13:50:51.887Z,777
2017-04-20T13:51:52.414Z,858
2017-04-20T13:52:52.950Z,833
2017-04-20T13:53:53.475Z,828
2017-04-20T13:54:54.007Z,827
2017-04-20T13:55:54.539Z,843
2017-04-20T13:56:55.076Z,784
2017-04-20T13:57:55.599Z,846
2017-04-20T13:58:56.127Z,850
2017-04-20T13:59:56.657Z,861
2017-04-20T14:00:57.194Z,828
2017-04-20T14:01:57.869Z,820
2017-04-20T14:02:58.252Z,816
2017-04-20T14:03:58.776Z,784
2017-04-20T14:04:59.311Z,821
2017-04-20T14:05:59.845Z,784
2017-04-20T14:07:00.371Z,814
2017-04-20T14:08:00.904Z,819
2017-04-20T14:09:01.428Z,817
2017-04-20T14:10:02.108Z,798
2017-04-20T14:11:02.499Z,814
2017-04-20T14:12:03.023Z,815
2017-04-20T14:13:03.553Z,805
2017-04-20T14:14:04.082Z,812
2017-04-20T14:15:04.618Z,808
2017-04-20T14:16:05.296Z,818
2017-04-20T14:17:05.682Z,812
2017-04-20T14:18:06.361Z,788
2017-04-20T14:19:06.747Z,800